Time;durP1;ratioP1;P1;durP2;ratioP2;P2;SDS_P1;SDS_P2;PMS_P1;PMS_P2;Temp;Humidity;BMP_temperature;BMP_pressure;BME280_temperature;BME280_humidity;BME280_pressure;Samples;Min_cycle;Max_cycle;Signal;HPM_P1;HPM_P2
2022/07/15 00:01:07;;;;;;;6.88;1.83;;;;;;;15.35;75.95;102443.94;5003686;28;20034;-60
2022/07/15 00:03:32;;;;;;;7.97;1.60;;;;;;;15.31;75.99;102439.59;5003724;28;20045;-61
2022/07/15 00:05:57;;;;;;;8.70;2.05;;;;;;;15.30;76.06;102436.09;5003928;28;20511;-61
2022/07/15 00:08:23;;;;;;;8.32;1.83;;;;;;;15.28;76.04;102435.25;5003423;28;20488;-60
2022/07/15 00:10:48;;;;;;;6.28;1.67;;;;;;;15.25;75.73;102430.03;5003990;28;20492;-60
2022/07/15 00:13:13;;;;;;;6.93;1.52;;;;;;;15.25;75.84;102438.00;5003386;28;20459;-62
2022/07/15 00:15:39;;;;;;;9.05;1.55;;;;;;;15.19;75.73;102433.72;5003639;28;20030;-62
2022/07/15 00:18:05;;;;;;;4.50;1.75;;;;;;;15.11;76.09;102430.44;5003748;28;20511;-61
2022/07/15 00:20:33;;;;;;;6.00;1.77;;;;;;;15.07;76.07;102434.06;5003679;28;20022;-61
2022/07/15 00:23:03;;;;;;;7.30;2.05;;;;;;;15.02;76.14;102431.56;5003937;28;20108;-62
2022/07/15 00:25:29;;;;;;;5.28;1.70;;;;;;;15.04;75.96;102429.72;5003706;28;20629;-61
2022/07/15 00:27:56;;;;;;;8.23;1.77;;;;;;;14.97;76.62;102425.50;5003507;28;20030;-61
2022/07/15 00:30:22;;;;;;;5.70;1.85;;;;;;;14.94;76.93;102421.16;5003794;28;20063;-62
2022/07/15 00:32:48;;;;;;;6.78;1.88;;;;;;;14.90;76.91;102416.84;5001584;28;20022;-61
2022/07/15 00:35:14;;;;;;;8.73;2.13;;;;;;;14.91;77.07;102415.91;5003519;28;20022;-61
2022/07/15 00:37:39;;;;;;;7.55;1.98;;;;;;;14.90;76.67;102423.00;5003778;28;20066;-62
2022/07/15 00:40:05;;;;;;;9.25;2.25;;;;;;;14.94;76.62;102420.25;5004242;28;20030;-61
2022/07/15 00:42:45;;;;;;;5.18;1.65;;;;;;;14.97;76.17;102426.38;5007373;28;20140;-61
2022/07/15 00:45:21;;;;;;;9.40;1.70;;;;;;;14.92;75.74;102417.66;5007248;28;20030;-61
2022/07/15 00:47:55;;;;;;;7.60;1.67;;;;;;;14.87;76.11;102417.78;5006575;28;20097;-61
2022/07/15 00:50:22;;;;;;;10.73;1.88;;;;;;;14.78;76.15;102416.25;5007027;28;20466;-61
2022/07/15 00:52:54;;;;;;;6.15;1.73;;;;;;;14.67;76.81;102415.63;5007250;28;20531;-60
2022/07/15 00:55:20;;;;;;;10.13;1.90;;;;;;;14.64;76.90;102421.91;5007028;28;20058;-61
2022/07/15 00:57:45;;;;;;;5.90;1.50;;;;;;;14.62;77.14;102420.16;5005676;28;20550;-60
2022/07/15 01:00:12;;;;;;;6.00;1.52;;;;;;;14.57;77.16;102422.09;5006577;28;20156;-61
2022/07/15 01:02:39;;;;;;;9.38;1.70;;;;;;;14.52;77.20;102419.53;5006614;28;20033;-59
2022/07/15 01:05:06;;;;;;;6.20;1.65;;;;;;;14.47;77.46;102416.13;5007061;28;20021;-62
2022/07/15 01:07:32;;;;;;;6.45;1.52;;;;;;;14.47;77.29;102421.44;5006688;28;20026;-60
2022/07/15 01:09:58;;;;;;;5.65;1.77;;;;;;;14.45;77.50;102417.97;5004978;28;20050;-61
2022/07/15 01:12:24;;;;;;;4.10;1.38;;;;;;;14.44;77.23;102426.81;5006993;28;20037;-60
2022/07/15 01:14:50;;;;;;;3.58;1.13;;;;;;;14.42;77.40;102415.38;5005776;28;20113;-64
2022/07/15 01:17:16;;;;;;;12.23;1.90;;;;;;;14.39;77.83;102424.28;5005904;28;20477;-62
2022/07/15 01:19:41;;;;;;;6.85;1.52;;;;;;;14.37;77.41;102426.97;5006472;28;20026;-61
2022/07/15 01:22:07;;;;;;;5.82;1.30;;;;;;;14.33;78.00;102424.44;5006868;28;20014;-62
2022/07/15 01:24:33;;;;;;;6.38;1.65;;;;;;;14.29;78.22;102423.63;5007499;28;20026;-61
2022/07/15 01:26:59;;;;;;;7.03;1.40;;;;;;;14.24;78.75;102429.03;5006408;28;20026;-61
2022/07/15 01:29:24;;;;;;;6.20;1.52;;;;;;;14.22;78.52;102432.66;5006345;28;20018;-61
2022/07/15 01:31:50;;;;;;;6.38;1.50;;;;;;;14.24;78.44;102429.03;5006151;28;20029;-61
2022/07/15 01:34:16;;;;;;;9.93;1.55;;;;;;;14.18;79.08;102426.53;5005981;28;20021;-61
2022/07/15 01:36:41;;;;;;;4.95;1.48;;;;;;;14.17;78.94;102431.91;5006426;28;20064;-61
2022/07/15 01:39:06;;;;;;;6.15;1.42;;;;;;;14.16;79.13;102425.72;5006537;28;20026;-61
2022/07/15 01:41:32;;;;;;;6.70;1.90;;;;;;;14.09;79.52;102430.28;5006353;28;20030;-61
2022/07/15 01:43:57;;;;;;;7.35;1.45;;;;;;;14.05;79.95;102427.75;5006303;28;20080;-61
2022/07/15 01:46:23;;;;;;;5.50;1.70;;;;;;;13.99;80.13;102426.09;5005709;28;20092;-61
2022/07/15 01:51:32;;;;;;;8.73;1.52;;;;;;;13.93;80.84;102431.56;5004972;28;20579;-62
2022/07/15 01:53:57;;;;;;;6.25;1.70;;;;;;;13.98;80.56;102424.34;5006344;28;20120;-61
2022/07/15 01:56:23;;;;;;;7.90;1.67;;;;;;;14.03;80.71;102425.13;5005800;28;20030;-61
2022/07/15 01:58:48;;;;;;;12.10;1.40;;;;;;;14.01;80.80;102416.34;5006189;28;20123;-61
2022/07/15 02:01:14;;;;;;;5.93;1.38;;;;;;;14.00;80.64;102422.56;5005665;28;20088;-63
2022/07/15 02:03:39;;;;;;;5.43;1.60;;;;;;;13.98;80.46;102408.47;5005114;28;20457;-60
2022/07/15 02:06:05;;;;;;;8.77;1.67;;;;;;;13.94;80.63;102418.25;5006265;28;20033;-61
2022/07/15 02:08:31;;;;;;;8.43;1.83;;;;;;;13.86;80.94;102423.75;5005257;28;20036;-60
2022/07/15 02:10:56;;;;;;;11.05;1.60;;;;;;;13.79;81.68;102418.59;5005715;28;20066;-61
2022/07/15 02:13:21;;;;;;;5.15;1.50;;;;;;;13.78;81.92;102417.72;5005662;28;20030;-62
2022/07/15 02:15:47;;;;;;;4.15;1.50;;;;;;;13.87;81.53;102425.47;5005697;28;20310;-63
2022/07/15 02:18:12;;;;;;;12.63;2.03;;;;;;;13.87;81.67;102419.28;5005016;28;20386;-61
2022/07/15 02:20:38;;;;;;;9.45;1.85;;;;;;;13.89;81.57;102422.78;5004075;28;20495;-61
2022/07/15 02:23:04;;;;;;;10.02;1.95;;;;;;;13.87;81.43;102422.81;5005954;28;20054;-63
2022/07/15 02:25:31;;;;;;;8.43;1.80;;;;;;;13.85;81.03;102419.31;5005547;28;20026;-62
2022/07/15 02:28:02;;;;;;;9.48;1.85;;;;;;;13.84;81.56;102417.59;5005373;28;20386;-61
2022/07/15 02:30:33;;;;;;;6.15;1.40;;;;;;;13.89;81.13;102428.97;5004902;28;20113;-61
2022/07/15 02:32:59;;;;;;;3.97;1.30;;;;;;;13.83;80.98;102421.16;5004643;28;20026;-60
2022/07/15 02:35:24;;;;;;;5.78;1.40;;;;;;;13.81;81.45;102422.97;5005297;28;20516;-61
2022/07/15 02:37:50;;;;;;;10.05;1.75;;;;;;;13.86;81.41;102422.84;5005362;28;20026;-62
2022/07/15 02:40:15;;;;;;;12.38;1.77;;;;;;;13.83;81.21;102423.81;5004770;28;20105;-62
2022/07/15 02:42:50;;;;;;;5.57;1.25;;;;;;;13.83;81.22;102422.91;5004046;28;20124;-61
2022/07/15 02:45:17;;;;;;;5.25;1.60;;;;;;;13.81;81.31;102428.25;5005095;28;20121;-62
2022/07/15 02:47:42;;;;;;;9.90;1.90;;;;;;;13.73;81.64;102427.56;5004788;28;20026;-61
2022/07/15 02:50:07;;;;;;;4.65;1.38;;;;;;;13.69;82.07;102433.84;5005268;28;20021;-61
2022/07/15 02:52:33;;;;;;;13.60;1.70;;;;;;;13.62;82.18;102433.09;5005590;28;20018;-59
2022/07/15 02:54:58;;;;;;;3.90;1.50;;;;;;;13.60;82.13;102435.75;5005090;28;20028;-62
2022/07/15 02:57:24;;;;;;;8.70;1.67;;;;;;;13.60;82.12;102435.75;5004894;28;20030;-61
2022/07/15 02:59:49;;;;;;;4.22;1.90;;;;;;;13.63;82.38;102429.53;5004740;28;20031;-62
2022/07/15 03:02:14;;;;;;;5.63;1.27;;;;;;;13.62;82.44;102441.91;5003787;28;20160;-62
2022/07/15 03:04:39;;;;;;;5.82;1.05;;;;;;;13.64;82.32;102440.09;5004573;28;20029;-61
2022/07/15 03:07:05;;;;;;;4.13;1.30;;;;;;;13.70;82.02;102443.53;5004747;28;20050;-62
2022/07/15 03:09:30;;;;;;;7.30;1.23;;;;;;;13.74;82.05;102442.53;5004269;28;20321;-62
2022/07/15 03:11:56;;;;;;;4.00;1.50;;;;;;;13.75;81.90;102444.28;5004934;28;20105;-62
2022/07/15 03:14:21;;;;;;;6.05;1.20;;;;;;;13.80;82.08;102449.47;5004301;28;20117;-62
2022/07/15 03:16:46;;;;;;;6.05;1.30;;;;;;;13.81;81.88;102443.31;5003928;28;20030;-61
2022/07/15 03:19:12;;;;;;;3.92;1.20;;;;;;;13.88;81.58;102452.84;5004078;28;20080;-61
2022/07/15 03:21:37;;;;;;;5.85;1.63;;;;;;;13.92;81.47;102451.00;5004818;28;20591;-60
2022/07/15 03:24:03;;;;;;;8.90;1.40;;;;;;;13.97;81.49;102449.97;5005055;28;20021;-61
2022/07/15 03:26:29;;;;;;;5.85;1.55;;;;;;;14.08;81.44;102449.75;5003691;28;20030;-61
2022/07/15 03:28:54;;;;;;;5.55;1.67;;;;;;;14.25;81.26;102459.97;5004515;28;20036;-61
2022/07/15 03:31:19;;;;;;;5.55;1.70;;;;;;;14.39;80.01;102459.63;5003173;28;20026;-60
2022/07/15 03:33:45;;;;;;;8.90;1.30;;;;;;;14.56;79.11;102463.63;5004103;28;20239;-62
2022/07/15 03:36:10;;;;;;;3.22;1.20;;;;;;;14.65;78.54;102463.41;5004258;28;20041;-64
2022/07/15 03:38:35;;;;;;;4.55;1.17;;;;;;;14.76;77.79;102459.63;5002804;28;20117;-63
2022/07/15 03:41:01;;;;;;;1.40;0.75;;;;;;;14.82;77.66;102456.84;5004488;28;20101;-62
2022/07/15 03:43:29;;;;;;;4.63;0.93;;;;;;;14.85;77.51;102461.19;5003775;28;20398;-60
2022/07/15 03:45:55;;;;;;;5.83;1.23;;;;;;;14.93;77.33;102474.28;5004315;28;20022;-62
2022/07/15 03:48:21;;;;;;;7.80;1.20;;;;;;;14.88;77.37;102467.31;5003156;28;20067;-61
2022/07/15 03:50:46;;;;;;;3.80;1.20;;;;;;;14.88;77.17;102469.06;5004215;28;20018;-61
2022/07/15 03:53:12;;;;;;;5.97;1.45;;;;;;;14.96;76.93;102471.53;5004149;28;20404;-62
2022/07/15 03:55:37;;;;;;;7.55;1.20;;;;;;;15.03;76.71;102478.41;5003995;28;20046;-60
2022/07/15 03:58:03;;;;;;;6.15;1.17;;;;;;;15.03;76.30;102481.06;5004099;28;20025;-61
2022/07/15 04:00:29;;;;;;;5.53;1.08;;;;;;;15.07;76.05;102482.72;5003535;28;20109;-60
2022/07/15 04:02:54;;;;;;;2.28;1.10;;;;;;;15.10;75.63;102481.75;5003283;28;20106;-61
2022/07/15 04:05:20;;;;;;;6.07;1.00;;;;;;;15.11;75.66;102480.88;5003909;28;20028;-61
2022/07/15 04:07:46;;;;;;;5.55;1.20;;;;;;;15.15;75.54;102480.72;5003531;28;20046;-63
2022/07/15 04:10:12;;;;;;;5.25;1.20;;;;;;;15.18;75.22;102486.88;5003517;28;20309;-62
2022/07/15 04:12:37;;;;;;;4.03;1.35;;;;;;;15.17;75.20;102486.00;5002375;28;20030;-61
2022/07/15 04:15:03;;;;;;;11.38;1.40;;;;;;;15.14;75.09;102484.31;5006507;28;20504;-62
2022/07/15 04:17:29;;;;;;;7.15;1.58;;;;;;;15.14;75.21;102492.28;5009761;28;20385;-61
2022/07/15 04:19:54;;;;;;;6.35;1.50;;;;;;;15.16;75.08;102490.47;5010432;28;20022;-62
2022/07/15 04:22:20;;;;;;;5.43;1.23;;;;;;;15.15;75.23;102494.00;5010399;28;20033;-63
2022/07/15 04:24:45;;;;;;;4.47;1.45;;;;;;;15.13;75.26;102495.84;5010207;28;20034;-62
2022/07/15 04:27:11;;;;;;;5.82;1.45;;;;;;;15.11;75.17;102495.00;5009829;28;20393;-62
2022/07/15 04:29:36;;;;;;;4.50;1.30;;;;;;;15.13;75.19;102494.97;5010561;28;20041;-61
2022/07/15 04:32:02;;;;;;;5.40;1.52;;;;;;;15.20;75.00;102501.00;5009095;28;20014;-62
2022/07/15 04:34:27;;;;;;;5.53;1.35;;;;;;;15.16;75.15;102489.56;5010069;28;20222;-62
2022/07/15 04:36:53;;;;;;;6.45;1.10;;;;;;;15.22;74.69;102499.16;5010021;28;20033;-62
2022/07/15 04:39:18;;;;;;;6.25;1.67;;;;;;;15.21;75.13;102497.41;5009781;28;20247;-62
2022/07/15 04:41:43;;;;;;;8.95;1.95;;;;;;;15.24;74.92;102502.66;5010156;28;20030;-61
2022/07/15 04:44:09;;;;;;;1.67;1.08;;;;;;;15.28;74.95;102499.88;5009986;28;20372;-64
2022/07/15 04:46:34;;;;;;;5.47;1.30;;;;;;;15.32;74.83;102495.31;5009669;28;20480;-62
2022/07/15 04:51:43;;;;;;;6.47;1.42;;;;;;;15.48;74.41;102494.91;5010605;28;20072;-62
2022/07/15 04:54:09;;;;;;;3.35;1.27;;;;;;;15.51;74.20;102494.84;5009745;28;20030;-60
2022/07/15 04:56:35;;;;;;;10.40;1.27;;;;;;;15.62;73.76;102495.38;5008582;28;20076;-61
2022/07/15 04:59:01;;;;;;;7.97;1.60;;;;;;;15.73;73.39;102496.84;5009920;28;20079;-62
2022/07/15 05:01:26;;;;;;;3.65;1.30;;;;;;;15.82;73.11;102496.59;5008964;28;20414;-62
2022/07/15 05:03:51;;;;;;;2.83;1.30;;;;;;;15.84;72.86;102502.75;5009960;28;20516;-61
2022/07/15 05:06:17;;;;;;;4.18;1.02;;;;;;;15.94;72.50;102499.78;5009549;28;20048;-62
2022/07/15 05:08:42;;;;;;;5.97;0.98;;;;;;;15.99;72.11;102506.78;5009174;28;20524;-61
2022/07/15 05:11:07;;;;;;;6.05;1.20;;;;;;;16.03;72.39;102492.47;5009518;28;20038;-62
2022/07/15 05:13:36;;;;;;;6.22;1.45;;;;;;;16.16;72.30;102487.63;5009534;28;20037;-62
2022/07/15 05:16:01;;;;;;;3.97;1.15;;;;;;;16.16;72.32;102489.41;5009619;28;20085;-61
2022/07/15 05:18:27;;;;;;;8.13;1.30;;;;;;;16.26;72.25;102490.84;5009091;28;20480;-61
2022/07/15 05:20:52;;;;;;;2.92;1.10;;;;;;;16.28;72.04;102481.03;5009877;28;20163;-61
2022/07/15 05:23:18;;;;;;;4.22;1.20;;;;;;;16.34;71.98;102484.44;5009549;28;20061;-62
2022/07/15 05:25:43;;;;;;;6.35;0.98;;;;;;;16.45;71.74;102481.41;5009202;28;20022;-61
2022/07/15 05:28:09;;;;;;;10.70;1.65;;;;;;;16.52;71.54;102478.50;5006219;28;20026;-62
2022/07/15 05:30:37;;;;;;;4.25;1.27;;;;;;;16.59;71.18;102472.97;5006801;28;20033;-61
2022/07/15 05:33:02;;;;;;;4.15;1.20;;;;;;;16.60;71.02;102486.25;5006461;28;20097;-63
2022/07/15 05:35:28;;;;;;;8.05;1.35;;;;;;;16.71;70.81;102482.34;5006049;28;20113;-61
2022/07/15 05:37:53;;;;;;;3.47;1.25;;;;;;;16.73;70.55;102475.16;5006218;28;20504;-63
2022/07/15 05:40:18;;;;;;;9.70;1.50;;;;;;;16.84;69.72;102483.66;5006280;28;20026;-61
2022/07/15 05:42:44;;;;;;;4.20;1.38;;;;;;;16.89;69.64;102481.69;5005703;28;20018;-62
2022/07/15 05:45:09;;;;;;;10.80;1.45;;;;;;;16.93;69.55;102469.16;5006157;28;20018;-62
2022/07/15 05:47:35;;;;;;;5.00;1.77;;;;;;;16.97;69.12;102481.44;5005530;28;20054;-61
2022/07/15 05:50:00;;;;;;;5.93;1.10;;;;;;;17.03;69.14;102483.00;5006122;28;20018;-62
2022/07/15 05:52:25;;;;;;;5.80;1.40;;;;;;;17.10;68.85;102481.06;5004737;28;20109;-61
2022/07/15 05:54:51;;;;;;;4.80;0.90;;;;;;;17.15;69.35;102484.41;5005797;28;20049;-62
2022/07/15 05:57:16;;;;;;;4.82;1.13;;;;;;;17.24;68.88;102485.88;5005697;28;20117;-62
2022/07/15 05:59:42;;;;;;;7.65;0.80;;;;;;;17.26;69.08;102484.91;5005654;28;20088;-61
2022/07/15 06:02:08;;;;;;;5.15;1.08;;;;;;;17.26;68.98;102484.03;5004920;28;20033;-63
2022/07/15 06:04:33;;;;;;;2.83;0.95;;;;;;;17.32;69.29;102478.47;5006276;28;20072;-61
2022/07/15 06:06:58;;;;;;;5.70;1.05;;;;;;;17.38;69.42;102480.94;5005509;28;20032;-63
2022/07/15 06:09:24;;;;;;;5.57;0.90;;;;;;;17.48;69.31;102477.91;5004046;28;20049;-61
2022/07/15 06:11:49;;;;;;;2.67;1.05;;;;;;;17.55;69.05;102476.78;5005775;28;20405;-61
2022/07/15 06:14:15;;;;;;;4.95;1.02;;;;;;;17.57;68.95;102479.38;5005533;28;20250;-62
2022/07/15 06:16:41;;;;;;;2.15;0.90;;;;;;;17.63;68.04;102480.00;5005076;28;20109;-62
2022/07/15 06:19:08;;;;;;;2.60;1.02;;;;;;;17.77;67.83;102481.28;5005556;28;20052;-62
2022/07/15 06:21:35;;;;;;;5.13;0.82;;;;;;;17.89;68.22;102480.81;5005794;28;20026;-61
2022/07/15 06:24:00;;;;;;;9.75;1.23;;;;;;;17.92;67.99;102474.47;5005248;28;20488;-62
2022/07/15 06:26:25;;;;;;;3.63;1.05;;;;;;;17.89;67.60;102478.16;5005212;28;20026;-64
2022/07/15 06:28:51;;;;;;;6.80;1.10;;;;;;;17.96;67.82;102483.22;5005121;28;20026;-60
2022/07/15 06:31:16;;;;;;;6.15;1.27;;;;;;;18.05;67.48;102481.06;5004805;28;20068;-62
2022/07/15 06:33:41;;;;;;;4.93;0.93;;;;;;;18.02;67.59;102486.53;5005367;28;20040;-61
2022/07/15 06:36:07;;;;;;;3.15;0.85;;;;;;;18.26;66.38;102474.97;5005507;28;20010;-63
2022/07/15 06:38:32;;;;;;;4.93;0.80;;;;;;;18.41;65.15;102481.47;5004946;28;20026;-62
2022/07/15 06:40:58;;;;;;;3.92;1.23;;;;;;;18.42;64.64;102486.75;5005265;28;20076;-63
2022/07/15 06:43:23;;;;;;;4.10;1.13;;;;;;;18.63;63.53;102484.13;5004155;28;20033;-64
2022/07/15 06:45:49;;;;;;;5.85;0.73;;;;;;;18.88;63.28;102483.09;5004755;28;20045;-68
2022/07/15 06:48:14;;;;;;;3.45;0.90;;;;;;;19.07;63.30;102487.63;5004390;28;20026;-62
2022/07/15 06:50:39;;;;;;;3.13;0.98;;;;;;;19.36;61.12;102493.50;5004823;28;20057;-64
2022/07/15 06:53:05;;;;;;;5.95;1.00;;;;;;;19.47;60.36;102486.81;5005545;28;20495;-62
2022/07/15 06:55:30;;;;;;;6.22;1.20;;;;;;;19.63;60.41;102490.47;5004053;28;20412;-63
2022/07/15 06:57:56;;;;;;;9.07;1.10;;;;;;;19.79;59.73;102492.44;5004574;28;20755;-62
2022/07/15 07:00:21;;;;;;;2.22;0.82;;;;;;;19.76;59.92;102496.16;5004480;28;20029;-63
2022/07/15 07:02:46;;;;;;;4.60;1.08;;;;;;;19.85;59.57;102489.50;5003807;28;20014;-62
2022/07/15 07:05:12;;;;;;;4.60;0.88;;;;;;;19.95;59.67;102498.81;5004838;28;20164;-62
2022/07/15 07:07:37;;;;;;;4.93;0.80;;;;;;;20.03;59.45;102500.28;5003033;28;20089;-62
2022/07/15 07:10:03;;;;;;;4.20;1.10;;;;;;;20.03;58.47;102498.50;5004724;28;20255;-63
2022/07/15 07:12:30;;;;;;;5.93;0.75;;;;;;;20.03;58.86;102500.28;5004444;28;20091;-63
2022/07/15 07:14:55;;;;;;;5.32;0.80;;;;;;;20.14;57.96;102500.63;5004586;28;20025;-62
2022/07/15 07:17:20;;;;;;;2.47;0.75;;;;;;;20.19;57.53;102503.97;5003438;28;20097;-62
2022/07/15 07:19:46;;;;;;;5.10;0.93;;;;;;;20.28;56.48;102501.75;5003998;28;20034;-63
2022/07/15 07:22:11;;;;;;;1.45;0.77;;;;;;;20.29;56.58;102501.69;5004294;28;20037;-63
2022/07/15 07:24:36;;;;;;;2.97;0.80;;;;;;;20.34;55.77;102506.81;5004591;28;20116;-63
2022/07/15 07:27:02;;;;;;;1.60;0.75;;;;;;;20.21;55.90;102501.22;5003898;28;20025;-62
2022/07/15 07:29:28;;;;;;;2.70;0.85;;;;;;;20.19;56.06;102503.97;5003940;28;20037;-62
2022/07/15 07:31:53;;;;;;;3.28;0.80;;;;;;;20.38;56.03;102497.69;5002486;28;20028;-62
2022/07/15 07:34:18;;;;;;;4.03;1.30;;;;;;;20.25;55.13;102504.59;5004059;28;20392;-62
2022/07/15 07:36:45;;;;;;;4.03;0.77;;;;;;;20.36;55.15;102501.41;5004119;28;20472;-63
2022/07/15 07:39:11;;;;;;;3.13;0.77;;;;;;;20.56;54.25;102495.06;5003603;28;20026;-62
2022/07/15 07:41:37;;;;;;;2.28;0.73;;;;;;;20.61;53.54;102497.47;5004892;28;20026;-61
2022/07/15 07:44:02;;;;;;;5.35;0.90;;;;;;;20.68;52.92;102494.41;5003808;28;20065;-62
2022/07/15 07:46:27;;;;;;;2.63;0.75;;;;;;;20.60;53.16;102498.44;5002998;28;20218;-62
2022/07/15 07:48:53;;;;;;;4.57;0.80;;;;;;;20.41;52.59;102497.53;5003883;28;20030;-63
2022/07/15 07:51:18;;;;;;;8.65;1.02;;;;;;;20.56;52.17;102495.91;5002950;28;20037;-63
2022/07/15 07:53:46;;;;;;;4.00;0.80;;;;;;;20.68;52.63;102496.25;5004023;28;20049;-62
2022/07/15 07:56:11;;;;;;;2.17;0.70;;;;;;;20.84;51.07;102501.69;5003255;28;20110;-63
2022/07/15 07:58:39;;;;;;;3.63;0.63;;;;;;;21.00;50.06;102498.22;5004036;28;20069;-63
2022/07/15 08:01:04;;;;;;;4.07;0.68;;;;;;;21.12;50.05;102497.59;5002965;28;20029;-63
2022/07/15 08:03:30;;;;;;;2.90;0.98;;;;;;;20.86;49.89;102486.38;5003469;28;20032;-62
2022/07/15 08:05:55;;;;;;;2.72;0.90;;;;;;;20.81;50.72;102497.34;5003947;28;20112;-63
2022/07/15 08:08:21;;;;;;;2.78;0.60;;;;;;;20.57;53.12;102494.09;5003392;28;20451;-62
2022/07/15 08:10:52;;;;;;;4.45;0.80;;;;;;;20.17;53.80;102492.44;5003814;28;20042;-62
2022/07/15 08:13:19;;;;;;;6.50;0.80;;;;;;;19.96;55.21;102489.00;5003666;28;20112;-62
2022/07/15 08:15:45;;;;;;;3.83;0.65;;;;;;;20.15;55.17;102494.34;5002677;28;20026;-62
2022/07/15 08:18:11;;;;;;;2.17;0.65;;;;;;;20.36;54.59;102496.03;5002162;28;20045;-62
2022/07/15 08:20:37;;;;;;;4.43;0.68;;;;;;;20.44;53.54;102481.31;5003782;28;20022;-62
2022/07/15 08:23:03;;;;;;;4.05;0.60;;;;;;;20.36;53.92;102493.38;5003544;28;20030;-62
2022/07/15 08:25:31;;;;;;;4.95;0.70;;;;;;;20.49;52.06;102488.25;5003319;28;20022;-61
2022/07/15 08:27:58;;;;;;;2.33;0.50;;;;;;;20.44;51.35;102486.69;5003219;28;20014;-63
2022/07/15 08:30:29;;;;;;;3.88;0.80;;;;;;;20.14;53.87;102487.25;5003320;28;20430;-61
2022/07/15 08:32:54;;;;;;;2.60;0.73;;;;;;;20.31;52.99;102494.47;5003655;28;20026;-62
2022/07/15 08:35:21;;;;;;;3.03;0.88;;;;;;;20.60;51.81;102493.97;5003110;28;20033;-61
2022/07/15 08:37:46;;;;;;;2.85;0.60;;;;;;;20.67;51.82;102491.81;5003391;28;20409;-61
2022/07/15 08:40:12;;;;;;;3.45;0.82;;;;;;;20.63;52.15;102491.13;5003453;28;20516;-61
2022/07/15 08:42:43;;;;;;;6.57;0.90;;;;;;;20.67;51.85;102491.81;5003065;28;20559;-60
2022/07/15 08:45:09;;;;;;;3.55;0.80;;;;;;;20.81;51.07;102494.69;5003063;28;20022;-63
2022/07/15 08:47:37;;;;;;;4.45;0.80;;;;;;;20.81;52.13;102494.69;5003093;28;20060;-62
2022/07/15 08:50:02;;;;;;;3.50;0.80;;;;;;;20.69;51.33;102489.94;5003438;28;20080;-63
2022/07/15 08:52:28;;;;;;;3.65;0.80;;;;;;;20.86;51.59;102494.41;5002842;28;20125;-66
2022/07/15 08:54:54;;;;;;;3.47;0.63;;;;;;;21.28;50.25;102486.06;5002111;28;20488;-63
2022/07/15 08:57:19;;;;;;;2.72;0.70;;;;;;;21.59;49.11;102487.09;5002655;28;20038;-62
2022/07/15 08:59:46;;;;;;;3.22;0.60;;;;;;;21.83;48.76;102481.34;5003696;28;20030;-64
2022/07/15 09:02:15;;;;;;;1.67;0.75;;;;;;;21.98;46.92;102484.09;5004543;28;20045;-62
2022/07/15 09:05:22;;;;;;;3.30;0.60;;;;;;;22.14;45.81;102493.00;5005425;28;20034;-62
2022/07/15 09:07:56;;;;;;;4.47;1.13;;;;;;;22.34;46.14;102482.94;5007081;28;20034;-62
2022/07/15 09:10:24;;;;;;;2.03;0.60;;;;;;;22.53;44.75;102479.16;5006392;28;20042;-62
2022/07/15 09:12:53;;;;;;;3.95;0.90;;;;;;;22.87;43.64;102481.69;5005789;28;20030;-62
2022/07/15 09:15:34;;;;;;;2.25;0.65;;;;;;;23.07;44.10;102488.53;5006063;28;20026;-62
2022/07/15 09:18:06;;;;;;;7.22;1.15;;;;;;;23.24;43.58;102482.13;5006522;28;20145;-61
2022/07/15 09:20:31;;;;;;;2.03;0.68;;;;;;;23.02;44.33;102482.59;5006524;28;20119;-62
2022/07/15 09:22:57;;;;;;;2.53;0.73;;;;;;;23.03;44.96;102479.78;5005149;28;20073;-61
2022/07/15 09:25:23;;;;;;;3.92;0.90;;;;;;;23.08;44.45;102474.13;5006209;28;20027;-61
2022/07/15 09:27:50;;;;;;;4.13;1.20;;;;;;;22.76;46.52;102480.53;5006410;28;20030;-63
2022/07/15 09:36:04;;;;;;;2.65;0.85;;;;;;;22.59;44.98;102471.66;5006088;28;20436;-63
2022/07/15 09:38:40;;;;;;;5.45;0.90;;;;;;;22.43;43.90;102468.94;5005880;28;20774;-64
2022/07/15 09:41:07;;;;;;;3.92;0.68;;;;;;;22.56;43.91;102473.59;4989807;28;20022;-63
2022/07/15 09:43:46;;;;;;;1.42;0.55;;;;;;;22.55;44.01;102466.53;5007286;28;20033;-64
2022/07/15 09:46:11;;;;;;;2.13;0.93;;;;;;;22.36;43.32;102466.75;5006263;28;20029;-64
2022/07/15 09:48:42;;;;;;;2.92;0.60;;;;;;;22.38;43.56;102475.56;5006925;28;20030;-63
2022/07/15 09:51:07;;;;;;;2.30;0.88;;;;;;;22.71;42.76;102472.75;5006952;28;20022;-61
2022/07/15 09:53:32;;;;;;;1.75;0.98;;;;;;;22.60;43.81;102469.81;5007229;28;20105;-64
2022/07/15 09:55:58;;;;;;;3.00;1.05;;;;;;;22.57;42.59;102473.56;5006691;28;20033;-64
2022/07/15 09:58:25;;;;;;;1.60;0.73;;;;;;;23.00;42.53;102460.31;5006828;28;20030;-65
2022/07/15 10:00:52;;;;;;;1.95;1.20;;;;;;;23.20;42.29;102465.31;5005980;28;20091;-63
2022/07/15 10:03:18;;;;;;;1.90;0.77;;;;;;;23.33;42.47;102472.63;5006330;28;20384;-62
2022/07/15 10:05:44;;;;;;;5.53;1.10;;;;;;;23.09;41.43;102465.13;5006759;28;20037;-63
2022/07/15 10:08:11;;;;;;;4.53;1.10;;;;;;;22.71;42.22;102466.50;5005223;28;20027;-63
2022/07/15 10:10:39;;;;;;;1.52;1.05;;;;;;;22.59;41.41;102466.28;5005176;28;20069;-66
2022/07/15 10:13:29;;;;;;;1.60;1.05;;;;;;;22.62;41.48;102462.53;5005946;28;20030;-65
2022/07/15 10:16:07;;;;;;;2.50;1.25;;;;;;;22.61;40.65;102465.31;5005679;28;20026;-66
2022/07/15 10:18:48;;;;;;;4.07;1.52;;;;;;;22.82;42.00;102455.09;5006977;28;20026;-63
2022/07/15 10:21:45;;;;;;;2.75;1.10;;;;;;;23.12;40.93;102454.19;5005177;28;20137;-63
2022/07/15 10:24:38;;;;;;;3.13;1.30;;;;;;;22.80;41.71;102457.00;5003238;28;20126;-63
2022/07/15 10:27:26;;;;;;;1.48;0.90;;;;;;;23.22;42.19;102455.34;5005535;28;20026;-63
2022/07/15 10:29:52;;;;;;;2.10;0.90;;;;;;;23.19;42.11;102441.19;5002961;28;20040;-63
2022/07/15 10:32:17;;;;;;;4.90;1.17;;;;;;;23.30;41.25;102453.97;5004087;28;20400;-62
2022/07/15 10:34:42;;;;;;;2.10;1.08;;;;;;;23.10;41.34;102443.53;5005659;28;20045;-64
2022/07/15 10:37:10;;;;;;;3.15;0.90;;;;;;;22.77;42.25;102446.44;5005320;28;20080;-63
2022/07/15 10:40:03;;;;;;;7.43;1.00;;;;;;;23.00;42.58;102446.88;5005929;28;20703;-65
2022/07/15 10:43:01;;;;;;;2.00;0.85;;;;;;;23.45;41.29;102442.25;5003293;28;20018;-62
2022/07/15 10:45:27;;;;;;;5.40;1.50;;;;;;;23.66;40.90;102443.69;5004588;28;20084;-63
2022/07/15 10:48:25;;;;;;;9.02;0.90;;;;;;;23.58;41.29;102441.50;5006081;28;20038;-62
2022/07/15 10:50:50;;;;;;;2.07;0.87;;;;;;;23.22;41.74;102438.31;5006096;28;20053;-64
2022/07/15 10:53:19;;;;;;;1.48;0.68;;;;;;;23.31;42.65;102432.38;5003959;28;20827;-63
2022/07/15 10:55:44;;;;;;;3.22;0.90;;;;;;;23.31;41.64;102432.38;5005539;28;20054;-63
2022/07/15 10:58:11;;;;;;;3.13;1.40;;;;;;;23.41;40.83;102426.41;5004367;28;20084;-63
2022/07/15 11:00:37;;;;;;;2.67;0.70;;;;;;;23.19;41.14;102441.19;5005059;28;20130;-64
2022/07/15 11:03:19;;;;;;;1.40;0.70;;;;;;;23.48;40.74;102431.31;5005680;28;20109;-63
2022/07/15 11:05:45;;;;;;;2.38;1.00;;;;;;;23.78;39.87;102436.66;5005242;28;20033;-64
2022/07/15 11:08:36;;;;;;;5.35;0.93;;;;;;;24.00;39.60;102425.31;5005534;28;20034;-64
2022/07/15 11:11:13;;;;;;;2.55;0.98;;;;;;;24.21;38.68;102432.97;4989124;28;20060;-64
2022/07/15 11:13:39;;;;;;;0.73;0.73;;;;;;;24.33;38.08;102429.44;5005126;28;20133;-65
2022/07/15 11:16:06;;;;;;;3.97;0.90;;;;;;;24.51;37.19;102425.59;5004381;28;20160;-64
2022/07/15 11:18:51;;;;;;;1.98;0.75;;;;;;;24.55;37.82;102437.88;5004024;28;20034;-62
2022/07/15 11:21:17;;;;;;;4.07;0.82;;;;;;;24.00;38.16;102437.91;5004868;28;20503;-62
2022/07/15 11:23:45;;;;;;;1.77;0.80;;;;;;;23.77;38.60;102435.78;5005235;28;20034;-62
2022/07/15 11:26:11;;;;;;;;;;;;;;;23.84;38.70;102429.00;5005703;28;20042;-63
2022/07/15 11:28:36;;;;;;;1.90;1.00;;;;;;;23.99;38.14;102429.00;5005428;28;19936;-63
2022/07/15 11:31:02;;;;;;;2.15;1.08;;;;;;;24.29;37.62;102421.66;5004257;28;20616;-63
2022/07/15 11:33:29;;;;;;;3.92;1.10;;;;;;;24.63;38.67;102423.88;5005061;28;20029;-62
2022/07/15 11:36:00;;;;;;;3.85;1.15;;;;;;;24.80;36.56;102425.41;5005303;28;20024;-63